sensor_id;sensor_type;location;lat;lon;timestamp;P1;durP1;ratioP1;P2;durP2;ratioP2
10191;SDS011;17580;50.850;4.504;2022-09-29T00:01:08;3.37;;;2.17;;
10191;SDS011;17580;50.850;4.504;2022-09-29T00:03:37;2.73;;;2.23;;
10191;SDS011;17580;50.850;4.504;2022-09-29T00:06:08;2.50;;;2.30;;
10191;SDS011;17580;50.850;4.504;2022-09-29T00:08:37;1.97;;;1.87;;
10191;SDS011;17580;50.850;4.504;2022-09-29T00:11:05;2.60;;;2.50;;
10191;SDS011;17580;50.850;4.504;2022-09-29T00:13:33;2.30;;;2.10;;
10191;SDS011;17580;50.850;4.504;2022-09-29T00:16:00;2.60;;;2.40;;
10191;SDS011;17580;50.850;4.504;2022-09-29T00:18:30;2.67;;;2.47;;
10191;SDS011;17580;50.850;4.504;2022-09-29T00:20:59;3.07;;;2.37;;
10191;SDS011;17580;50.850;4.504;2022-09-29T00:23:28;2.00;;;1.90;;
10191;SDS011;17580;50.850;4.504;2022-09-29T00:25:59;6.00;;;1.80;;
10191;SDS011;17580;50.850;4.504;2022-09-29T00:28:27;2.50;;;2.37;;
10191;SDS011;17580;50.850;4.504;2022-09-29T00:30:56;2.20;;;2.07;;
10191;SDS011;17580;50.850;4.504;2022-09-29T00:33:24;2.00;;;1.90;;
10191;SDS011;17580;50.850;4.504;2022-09-29T00:35:59;2.30;;;2.10;;
10191;SDS011;17580;50.850;4.504;2022-09-29T00:38:27;2.10;;;2.00;;
10191;SDS011;17580;50.850;4.504;2022-09-29T00:40:55;3.40;;;2.50;;
10191;SDS011;17580;50.850;4.504;2022-09-29T00:43:24;2.40;;;1.90;;
10191;SDS011;17580;50.850;4.504;2022-09-29T00:46:14;2.23;;;2.00;;
10191;SDS011;17580;50.850;4.504;2022-09-29T00:48:44;2.33;;;2.20;;
10191;SDS011;17580;50.850;4.504;2022-09-29T00:51:14;3.57;;;2.40;;
10191;SDS011;17580;50.850;4.504;2022-09-29T00:53:42;2.40;;;2.30;;
10191;SDS011;17580;50.850;4.504;2022-09-29T00:56:10;3.43;;;2.40;;
10191;SDS011;17580;50.850;4.504;2022-09-29T00:58:41;1.93;;;1.83;;
10191;SDS011;17580;50.850;4.504;2022-09-29T01:01:10;2.20;;;2.10;;
10191;SDS011;17580;50.850;4.504;2022-09-29T01:03:39;2.80;;;2.40;;
10191;SDS011;17580;50.850;4.504;2022-09-29T01:06:12;2.40;;;2.20;;
10191;SDS011;17580;50.850;4.504;2022-09-29T01:08:45;2.00;;;1.90;;
10191;SDS011;17580;50.850;4.504;2022-09-29T01:11:17;2.07;;;1.97;;
10191;SDS011;17580;50.850;4.504;2022-09-29T01:13:46;2.10;;;2.00;;
10191;SDS011;17580;50.850;4.504;2022-09-29T01:16:14;2.40;;;2.20;;
10191;SDS011;17580;50.850;4.504;2022-09-29T01:18:41;3.07;;;2.77;;
10191;SDS011;17580;50.850;4.504;2022-09-29T01:21:12;2.20;;;2.10;;
10191;SDS011;17580;50.850;4.504;2022-09-29T01:24:01;2.60;;;2.40;;
10191;SDS011;17580;50.850;4.504;2022-09-29T01:26:55;2.30;;;2.20;;
10191;SDS011;17580;50.850;4.504;2022-09-29T01:29:50;2.10;;;2.00;;
10191;SDS011;17580;50.850;4.504;2022-09-29T01:32:32;2.10;;;2.00;;
10191;SDS011;17580;50.850;4.504;2022-09-29T01:35:15;2.77;;;2.53;;
10191;SDS011;17580;50.850;4.504;2022-09-29T01:37:53;3.33;;;2.40;;
10191;SDS011;17580;50.850;4.504;2022-09-29T01:40:29;2.53;;;2.33;;
10191;SDS011;17580;50.850;4.504;2022-09-29T01:43:05;3.13;;;2.40;;
10191;SDS011;17580;50.850;4.504;2022-09-29T01:45:35;2.40;;;2.30;;
10191;SDS011;17580;50.850;4.504;2022-09-29T01:48:08;2.30;;;2.20;;
10191;SDS011;17580;50.850;4.504;2022-09-29T01:50:39;2.27;;;2.17;;
10191;SDS011;17580;50.850;4.504;2022-09-29T01:53:10;2.27;;;2.07;;
10191;SDS011;17580;50.850;4.504;2022-09-29T01:55:42;3.07;;;2.50;;
10191;SDS011;17580;50.850;4.504;2022-09-29T01:58:13;2.30;;;2.20;;
10191;SDS011;17580;50.850;4.504;2022-09-29T02:00:47;2.23;;;2.10;;
10191;SDS011;17580;50.850;4.504;2022-09-29T02:03:18;3.50;;;2.37;;
10191;SDS011;17580;50.850;4.504;2022-09-29T02:05:49;2.70;;;2.50;;
10191;SDS011;17580;50.850;4.504;2022-09-29T02:08:21;2.20;;;2.10;;
10191;SDS011;17580;50.850;4.504;2022-09-29T02:10:58;2.50;;;2.30;;
10191;SDS011;17580;50.850;4.504;2022-09-29T02:13:28;2.60;;;2.40;;
10191;SDS011;17580;50.850;4.504;2022-09-29T02:15:57;2.57;;;2.17;;
10191;SDS011;17580;50.850;4.504;2022-09-29T02:18:28;2.40;;;2.30;;
10191;SDS011;17580;50.850;4.504;2022-09-29T02:21:02;2.43;;;2.23;;
10191;SDS011;17580;50.850;4.504;2022-09-29T02:23:30;2.97;;;2.67;;
10191;SDS011;17580;50.850;4.504;2022-09-29T02:25:57;2.30;;;2.20;;
10191;SDS011;17580;50.850;4.504;2022-09-29T02:28:25;2.73;;;2.53;;
10191;SDS011;17580;50.850;4.504;2022-09-29T02:30:53;2.90;;;2.40;;
10191;SDS011;17580;50.850;4.504;2022-09-29T02:33:21;2.53;;;2.33;;
10191;SDS011;17580;50.850;4.504;2022-09-29T02:35:55;3.00;;;2.50;;
10191;SDS011;17580;50.850;4.504;2022-09-29T02:38:34;2.57;;;2.40;;
10191;SDS011;17580;50.850;4.504;2022-09-29T02:41:11;2.60;;;2.40;;
10191;SDS011;17580;50.850;4.504;2022-09-29T02:44:07;2.83;;;2.37;;
10191;SDS011;17580;50.850;4.504;2022-09-29T02:46:47;2.27;;;2.13;;
10191;SDS011;17580;50.850;4.504;2022-09-29T02:49:31;2.27;;;2.17;;
10191;SDS011;17580;50.850;4.504;2022-09-29T02:52:15;5.00;;;2.10;;
10191;SDS011;17580;50.850;4.504;2022-09-29T02:54:54;2.60;;;2.40;;
10191;SDS011;17580;50.850;4.504;2022-09-29T02:57:30;2.53;;;2.43;;
10191;SDS011;17580;50.850;4.504;2022-09-29T03:00:03;2.30;;;2.10;;
10191;SDS011;17580;50.850;4.504;2022-09-29T03:02:33;2.40;;;2.30;;
10191;SDS011;17580;50.850;4.504;2022-09-29T03:05:01;4.33;;;2.53;;
10191;SDS011;17580;50.850;4.504;2022-09-29T03:07:30;2.77;;;2.50;;
10191;SDS011;17580;50.850;4.504;2022-09-29T03:09:57;2.43;;;2.33;;
10191;SDS011;17580;50.850;4.504;2022-09-29T03:12:24;2.60;;;2.40;;
10191;SDS011;17580;50.850;4.504;2022-09-29T03:14:51;2.60;;;2.50;;
10191;SDS011;17580;50.850;4.504;2022-09-29T03:17:17;3.07;;;2.87;;
10191;SDS011;17580;50.850;4.504;2022-09-29T03:19:44;2.87;;;2.67;;
10191;SDS011;17580;50.850;4.504;2022-09-29T03:22:11;2.27;;;2.17;;
10191;SDS011;17580;50.850;4.504;2022-09-29T03:24:40;4.27;;;3.00;;
10191;SDS011;17580;50.850;4.504;2022-09-29T03:27:07;3.10;;;2.87;;
10191;SDS011;17580;50.850;4.504;2022-09-29T03:29:35;3.07;;;2.63;;
10191;SDS011;17580;50.850;4.504;2022-09-29T03:32:03;2.97;;;2.63;;
10191;SDS011;17580;50.850;4.504;2022-09-29T03:34:30;3.20;;;2.90;;
10191;SDS011;17580;50.850;4.504;2022-09-29T03:36:57;5.17;;;2.80;;
10191;SDS011;17580;50.850;4.504;2022-09-29T03:39:24;2.40;;;2.20;;
10191;SDS011;17580;50.850;4.504;2022-09-29T03:41:53;3.27;;;2.83;;
10191;SDS011;17580;50.850;4.504;2022-09-29T03:44:20;3.03;;;2.80;;
10191;SDS011;17580;50.850;4.504;2022-09-29T03:46:47;2.50;;;2.30;;
10191;SDS011;17580;50.850;4.504;2022-09-29T03:49:14;4.10;;;3.00;;
10191;SDS011;17580;50.850;4.504;2022-09-29T03:51:42;2.50;;;2.40;;
10191;SDS011;17580;50.850;4.504;2022-09-29T03:54:09;3.77;;;2.97;;
10191;SDS011;17580;50.850;4.504;2022-09-29T03:56:36;3.10;;;2.80;;
10191;SDS011;17580;50.850;4.504;2022-09-29T03:59:05;3.33;;;3.03;;
10191;SDS011;17580;50.850;4.504;2022-09-29T04:01:34;3.97;;;2.80;;
10191;SDS011;17580;50.850;4.504;2022-09-29T04:04:02;2.80;;;2.60;;
10191;SDS011;17580;50.850;4.504;2022-09-29T04:06:30;2.80;;;2.60;;
10191;SDS011;17580;50.850;4.504;2022-09-29T04:08:58;3.20;;;3.00;;
10191;SDS011;17580;50.850;4.504;2022-09-29T04:11:24;2.80;;;2.60;;
10191;SDS011;17580;50.850;4.504;2022-09-29T04:13:51;2.77;;;2.57;;
10191;SDS011;17580;50.850;4.504;2022-09-29T04:16:20;3.17;;;2.97;;
10191;SDS011;17580;50.850;4.504;2022-09-29T04:18:47;3.17;;;2.57;;
10191;SDS011;17580;50.850;4.504;2022-09-29T04:21:14;2.97;;;2.77;;
10191;SDS011;17580;50.850;4.504;2022-09-29T04:23:41;2.73;;;2.57;;
10191;SDS011;17580;50.850;4.504;2022-09-29T04:26:08;3.10;;;2.70;;
10191;SDS011;17580;50.850;4.504;2022-09-29T04:28:35;2.83;;;2.63;;
10191;SDS011;17580;50.850;4.504;2022-09-29T04:31:03;2.87;;;2.67;;
10191;SDS011;17580;50.850;4.504;2022-09-29T04:33:31;2.90;;;2.67;;
10191;SDS011;17580;50.850;4.504;2022-09-29T04:35:59;3.60;;;2.87;;
10191;SDS011;17580;50.850;4.504;2022-09-29T04:38:26;2.77;;;2.57;;
10191;SDS011;17580;50.850;4.504;2022-09-29T04:40:53;2.93;;;2.73;;
10191;SDS011;17580;50.850;4.504;2022-09-29T04:43:20;2.83;;;2.63;;
10191;SDS011;17580;50.850;4.504;2022-09-29T04:45:47;3.83;;;3.17;;
10191;SDS011;17580;50.850;4.504;2022-09-29T04:48:13;3.13;;;2.50;;
10191;SDS011;17580;50.850;4.504;2022-09-29T04:50:42;5.33;;;2.87;;
10191;SDS011;17580;50.850;4.504;2022-09-29T04:53:10;4.23;;;2.70;;
10191;SDS011;17580;50.850;4.504;2022-09-29T04:55:37;2.33;;;2.13;;
10191;SDS011;17580;50.850;4.504;2022-09-29T04:58:05;2.70;;;2.50;;
10191;SDS011;17580;50.850;4.504;2022-09-29T05:00:32;3.57;;;2.93;;
10191;SDS011;17580;50.850;4.504;2022-09-29T05:02:59;3.07;;;2.80;;
10191;SDS011;17580;50.850;4.504;2022-09-29T05:05:26;3.85;;;3.35;;
10191;SDS011;17580;50.850;4.504;2022-09-29T05:07:54;2.97;;;2.77;;
10191;SDS011;17580;50.850;4.504;2022-09-29T05:10:23;3.00;;;2.80;;
10191;SDS011;17580;50.850;4.504;2022-09-29T05:12:51;2.70;;;2.57;;
10191;SDS011;17580;50.850;4.504;2022-09-29T05:15:18;3.10;;;2.90;;
10191;SDS011;17580;50.850;4.504;2022-09-29T05:17:45;4.43;;;3.00;;
10191;SDS011;17580;50.850;4.504;2022-09-29T05:20:12;3.57;;;3.03;;
10191;SDS011;17580;50.850;4.504;2022-09-29T05:22:40;2.83;;;2.63;;
10191;SDS011;17580;50.850;4.504;2022-09-29T05:25:08;5.13;;;2.83;;
10191;SDS011;17580;50.850;4.504;2022-09-29T05:27:36;4.07;;;3.30;;
10191;SDS011;17580;50.850;4.504;2022-09-29T05:30:03;5.47;;;2.83;;
10191;SDS011;17580;50.850;4.504;2022-09-29T05:32:31;3.10;;;2.87;;
10191;SDS011;17580;50.850;4.504;2022-09-29T05:34:58;5.10;;;3.27;;
10191;SDS011;17580;50.850;4.504;2022-09-29T05:37:26;5.30;;;3.50;;
10191;SDS011;17580;50.850;4.504;2022-09-29T05:39:53;8.47;;;3.50;;
10191;SDS011;17580;50.850;4.504;2022-09-29T05:42:21;5.27;;;3.27;;
10191;SDS011;17580;50.850;4.504;2022-09-29T05:44:49;6.73;;;2.87;;
10191;SDS011;17580;50.850;4.504;2022-09-29T05:47:16;3.03;;;2.83;;
10191;SDS011;17580;50.850;4.504;2022-09-29T05:49:43;3.20;;;2.90;;
10191;SDS011;17580;50.850;4.504;2022-09-29T05:52:10;8.33;;;3.40;;
10191;SDS011;17580;50.850;4.504;2022-09-29T05:54:37;3.13;;;2.83;;
10191;SDS011;17580;50.850;4.504;2022-09-29T05:57:04;10.97;;;3.63;;
10191;SDS011;17580;50.850;4.504;2022-09-29T05:59:32;4.60;;;3.83;;
10191;SDS011;17580;50.850;4.504;2022-09-29T06:01:59;4.63;;;3.00;;
10191;SDS011;17580;50.850;4.504;2022-09-29T06:04:26;5.10;;;3.33;;
10191;SDS011;17580;50.850;4.504;2022-09-29T06:06:53;4.30;;;2.90;;
10191;SDS011;17580;50.850;4.504;2022-09-29T06:09:21;6.67;;;3.30;;
10191;SDS011;17580;50.850;4.504;2022-09-29T06:11:48;4.20;;;3.13;;
10191;SDS011;17580;50.850;4.504;2022-09-29T06:14:15;4.27;;;3.37;;
10191;SDS011;17580;50.850;4.504;2022-09-29T06:16:43;4.90;;;3.40;;
10191;SDS011;17580;50.850;4.504;2022-09-29T06:19:10;3.13;;;2.93;;
10191;SDS011;17580;50.850;4.504;2022-09-29T06:21:37;5.27;;;4.20;;
10191;SDS011;17580;50.850;4.504;2022-09-29T06:24:04;3.53;;;3.30;;
10191;SDS011;17580;50.850;4.504;2022-09-29T06:26:32;3.47;;;3.17;;
10191;SDS011;17580;50.850;4.504;2022-09-29T06:29:00;3.60;;;3.30;;
10191;SDS011;17580;50.850;4.504;2022-09-29T06:31:27;3.20;;;2.90;;
10191;SDS011;17580;50.850;4.504;2022-09-29T06:33:57;3.33;;;3.03;;
10191;SDS011;17580;50.850;4.504;2022-09-29T06:36:25;5.53;;;3.47;;
10191;SDS011;17580;50.850;4.504;2022-09-29T06:39:13;4.20;;;3.30;;
10191;SDS011;17580;50.850;4.504;2022-09-29T06:41:41;4.80;;;4.20;;
10191;SDS011;17580;50.850;4.504;2022-09-29T06:44:12;3.67;;;3.33;;
10191;SDS011;17580;50.850;4.504;2022-09-29T06:46:39;6.50;;;4.20;;
10191;SDS011;17580;50.850;4.504;2022-09-29T06:49:07;4.60;;;3.70;;
10191;SDS011;17580;50.850;4.504;2022-09-29T06:51:36;4.10;;;3.30;;
10191;SDS011;17580;50.850;4.504;2022-09-29T06:54:03;4.83;;;4.43;;
10191;SDS011;17580;50.850;4.504;2022-09-29T06:56:30;3.30;;;3.00;;
10191;SDS011;17580;50.850;4.504;2022-09-29T06:58:57;3.50;;;3.27;;
10191;SDS011;17580;50.850;4.504;2022-09-29T07:01:24;6.63;;;3.33;;
10191;SDS011;17580;50.850;4.504;2022-09-29T07:03:51;3.50;;;3.20;;
10191;SDS011;17580;50.850;4.504;2022-09-29T07:06:19;5.57;;;4.07;;
10191;SDS011;17580;50.850;4.504;2022-09-29T07:08:46;4.17;;;3.63;;
10191;SDS011;17580;50.850;4.504;2022-09-29T07:11:18;3.20;;;3.00;;
10191;SDS011;17580;50.850;4.504;2022-09-29T07:13:45;7.70;;;4.13;;
10191;SDS011;17580;50.850;4.504;2022-09-29T07:16:13;11.73;;;4.03;;
10191;SDS011;17580;50.850;4.504;2022-09-29T07:18:40;12.60;;;4.03;;
10191;SDS011;17580;50.850;4.504;2022-09-29T07:21:09;3.60;;;3.30;;
10191;SDS011;17580;50.850;4.504;2022-09-29T07:23:42;3.80;;;3.50;;
10191;SDS011;17580;50.850;4.504;2022-09-29T07:26:10;3.83;;;3.53;;
10191;SDS011;17580;50.850;4.504;2022-09-29T07:28:38;4.50;;;3.40;;
10191;SDS011;17580;50.850;4.504;2022-09-29T07:31:05;4.93;;;3.50;;
10191;SDS011;17580;50.850;4.504;2022-09-29T07:33:33;5.07;;;3.60;;
10191;SDS011;17580;50.850;4.504;2022-09-29T07:36:00;4.50;;;3.40;;
10191;SDS011;17580;50.850;4.504;2022-09-29T07:38:28;3.77;;;3.50;;
10191;SDS011;17580;50.850;4.504;2022-09-29T07:40:59;4.70;;;3.70;;
10191;SDS011;17580;50.850;4.504;2022-09-29T07:43:27;5.27;;;3.90;;
10191;SDS011;17580;50.850;4.504;2022-09-29T07:45:55;5.23;;;4.20;;
10191;SDS011;17580;50.850;4.504;2022-09-29T07:48:22;6.13;;;3.80;;
10191;SDS011;17580;50.850;4.504;2022-09-29T07:50:49;7.30;;;3.97;;
10191;SDS011;17580;50.850;4.504;2022-09-29T07:53:16;5.00;;;4.30;;
10191;SDS011;17580;50.850;4.504;2022-09-29T07:55:43;6.07;;;4.23;;
10191;SDS011;17580;50.850;4.504;2022-09-29T07:58:12;4.53;;;4.13;;
10191;SDS011;17580;50.850;4.504;2022-09-29T08:00:39;4.30;;;3.93;;
10191;SDS011;17580;50.850;4.504;2022-09-29T08:03:05;4.90;;;4.40;;
10191;SDS011;17580;50.850;4.504;2022-09-29T08:05:33;6.30;;;4.03;;
10191;SDS011;17580;50.850;4.504;2022-09-29T08:08:00;8.93;;;4.67;;
10191;SDS011;17580;50.850;4.504;2022-09-29T08:10:28;7.90;;;4.77;;
10191;SDS011;17580;50.850;4.504;2022-09-29T08:12:55;8.47;;;4.97;;
10191;SDS011;17580;50.850;4.504;2022-09-29T08:15:24;6.10;;;4.53;;
10191;SDS011;17580;50.850;4.504;2022-09-29T08:17:51;5.47;;;4.23;;
10191;SDS011;17580;50.850;4.504;2022-09-29T08:20:18;6.97;;;4.53;;
10191;SDS011;17580;50.850;4.504;2022-09-29T08:22:46;6.47;;;4.43;;
10191;SDS011;17580;50.850;4.504;2022-09-29T08:25:13;5.73;;;4.33;;
10191;SDS011;17580;50.850;4.504;2022-09-29T08:27:40;12.40;;;5.20;;
10191;SDS011;17580;50.850;4.504;2022-09-29T08:30:08;6.87;;;4.47;;
10191;SDS011;17580;50.850;4.504;2022-09-29T08:32:37;5.67;;;4.57;;
10191;SDS011;17580;50.850;4.504;2022-09-29T08:35:04;6.87;;;4.30;;
10191;SDS011;17580;50.850;4.504;2022-09-29T08:37:32;5.67;;;4.17;;
10191;SDS011;17580;50.850;4.504;2022-09-29T08:39:59;4.13;;;3.80;;
10191;SDS011;17580;50.850;4.504;2022-09-29T08:42:27;4.70;;;4.30;;
10191;SDS011;17580;50.850;4.504;2022-09-29T08:45:04;7.67;;;4.90;;
10191;SDS011;17580;50.850;4.504;2022-09-29T08:47:34;5.03;;;4.63;;
10191;SDS011;17580;50.850;4.504;2022-09-29T08:50:09;5.70;;;4.40;;
10191;SDS011;17580;50.850;4.504;2022-09-29T08:52:40;7.27;;;4.80;;
10191;SDS011;17580;50.850;4.504;2022-09-29T08:55:18;4.80;;;4.27;;
10191;SDS011;17580;50.850;4.504;2022-09-29T08:57:49;5.53;;;4.07;;
10191;SDS011;17580;50.850;4.504;2022-09-29T09:00:20;5.43;;;4.50;;
10191;SDS011;17580;50.850;4.504;2022-09-29T09:03:04;4.93;;;4.43;;
10191;SDS011;17580;50.850;4.504;2022-09-29T09:05:41;6.70;;;4.27;;
10191;SDS011;17580;50.850;4.504;2022-09-29T09:08:30;5.07;;;4.57;;
10191;SDS011;17580;50.850;4.504;2022-09-29T09:11:11;5.03;;;4.33;;
10191;SDS011;17580;50.850;4.504;2022-09-29T09:13:52;5.53;;;4.17;;
10191;SDS011;17580;50.850;4.504;2022-09-29T09:16:32;5.23;;;3.63;;
10191;SDS011;17580;50.850;4.504;2022-09-29T09:19:21;4.90;;;4.43;;
10191;SDS011;17580;50.850;4.504;2022-09-29T09:22:13;4.37;;;3.70;;
10191;SDS011;17580;50.850;4.504;2022-09-29T09:24:48;3.50;;;3.23;;
10191;SDS011;17580;50.850;4.504;2022-09-29T09:27:25;3.00;;;2.80;;
10191;SDS011;17580;50.850;4.504;2022-09-29T09:30:00;6.37;;;3.03;;
10191;SDS011;17580;50.850;4.504;2022-09-29T09:32:30;3.80;;;3.47;;
10191;SDS011;17580;50.850;4.504;2022-09-29T09:35:06;3.40;;;3.10;;
10191;SDS011;17580;50.850;4.504;2022-09-29T09:37:51;4.17;;;2.50;;
10191;SDS011;17580;50.850;4.504;2022-09-29T09:40:21;3.83;;;2.40;;
10191;SDS011;17580;50.850;4.504;2022-09-29T09:42:51;3.07;;;2.87;;
10191;SDS011;17580;50.850;4.504;2022-09-29T09:45:26;2.60;;;2.40;;
10191;SDS011;17580;50.850;4.504;2022-09-29T09:47:58;2.50;;;2.30;;
10191;SDS011;17580;50.850;4.504;2022-09-29T09:50:32;3.57;;;3.07;;
10191;SDS011;17580;50.850;4.504;2022-09-29T09:53:09;8.90;;;2.50;;
10191;SDS011;17580;50.850;4.504;2022-09-29T09:55:40;3.20;;;2.67;;
10191;SDS011;17580;50.850;4.504;2022-09-29T09:58:27;3.00;;;2.80;;
10191;SDS011;17580;50.850;4.504;2022-09-29T10:01:03;2.87;;;2.67;;
10191;SDS011;17580;50.850;4.504;2022-09-29T10:03:31;4.10;;;2.80;;
10191;SDS011;17580;50.850;4.504;2022-09-29T10:06:00;3.80;;;2.63;;
10191;SDS011;17580;50.850;4.504;2022-09-29T10:08:28;3.10;;;2.90;;
10191;SDS011;17580;50.850;4.504;2022-09-29T10:11:02;3.33;;;2.47;;
10191;SDS011;17580;50.850;4.504;2022-09-29T10:13:30;2.93;;;2.63;;
10191;SDS011;17580;50.850;4.504;2022-09-29T10:15:58;2.00;;;1.90;;
10191;SDS011;17580;50.850;4.504;2022-09-29T10:18:35;2.57;;;2.37;;
10191;SDS011;17580;50.850;4.504;2022-09-29T10:21:10;2.50;;;2.30;;
10191;SDS011;17580;50.850;4.504;2022-09-29T10:23:49;3.83;;;2.03;;
10191;SDS011;17580;50.850;4.504;2022-09-29T10:26:17;1.90;;;1.80;;
10191;SDS011;17580;50.850;4.504;2022-09-29T10:28:51;2.23;;;2.10;;
10191;SDS011;17580;50.850;4.504;2022-09-29T10:31:22;2.63;;;1.90;;
10191;SDS011;17580;50.850;4.504;2022-09-29T10:33:53;2.07;;;1.97;;
10191;SDS011;17580;50.850;4.504;2022-09-29T10:36:24;2.03;;;1.90;;
10191;SDS011;17580;50.850;4.504;2022-09-29T10:38:53;2.40;;;2.00;;
10191;SDS011;17580;50.850;4.504;2022-09-29T10:41:21;2.17;;;1.77;;
10191;SDS011;17580;50.850;4.504;2022-09-29T10:43:49;1.80;;;1.70;;
10191;SDS011;17580;50.850;4.504;2022-09-29T10:49:16;1.87;;;1.73;;
10191;SDS011;17580;50.850;4.504;2022-09-29T10:51:54;2.10;;;2.00;;
10191;SDS011;17580;50.850;4.504;2022-09-29T10:54:24;2.93;;;2.37;;
10191;SDS011;17580;50.850;4.504;2022-09-29T10:56:52;2.50;;;2.30;;
10191;SDS011;17580;50.850;4.504;2022-09-29T10:59:21;3.53;;;2.57;;
10191;SDS011;17580;50.850;4.504;2022-09-29T11:01:49;2.33;;;2.23;;
10191;SDS011;17580;50.850;4.504;2022-09-29T11:04:21;2.53;;;1.53;;
10191;SDS011;17580;50.850;4.504;2022-09-29T11:06:52;1.60;;;1.43;;
10191;SDS011;17580;50.850;4.504;2022-09-29T11:09:30;2.13;;;1.93;;
10191;SDS011;17580;50.850;4.504;2022-09-29T11:12:02;2.23;;;2.00;;
10191;SDS011;17580;50.850;4.504;2022-09-29T11:14:30;3.03;;;2.30;;
10191;SDS011;17580;50.850;4.504;2022-09-29T11:17:18;1.97;;;1.87;;
10191;SDS011;17580;50.850;4.504;2022-09-29T11:19:47;3.70;;;2.73;;
10191;SDS011;17580;50.850;4.504;2022-09-29T11:22:22;2.77;;;2.20;;
10191;SDS011;17580;50.850;4.504;2022-09-29T11:28:10;4.50;;;2.63;;
10191;SDS011;17580;50.850;4.504;2022-09-29T11:31:02;3.27;;;1.97;;
10191;SDS011;17580;50.850;4.504;2022-09-29T11:33:38;3.17;;;2.20;;
10191;SDS011;17580;50.850;4.504;2022-09-29T11:36:15;1.67;;;1.57;;
10191;SDS011;17580;50.850;4.504;2022-09-29T11:38:54;2.13;;;1.90;;
10191;SDS011;17580;50.850;4.504;2022-09-29T11:44:44;2.73;;;1.53;;
10191;SDS011;17580;50.850;4.504;2022-09-29T11:47:27;2.87;;;1.87;;
10191;SDS011;17580;50.850;4.504;2022-09-29T11:50:26;1.47;;;1.30;;
10191;SDS011;17580;50.850;4.504;2022-09-29T11:53:08;1.60;;;1.50;;
10191;SDS011;17580;50.850;4.504;2022-09-29T11:55:52;1.67;;;1.50;;
10191;SDS011;17580;50.850;4.504;2022-09-29T11:58:34;1.60;;;1.50;;
10191;SDS011;17580;50.850;4.504;2022-09-29T12:01:17;2.63;;;1.50;;
10191;SDS011;17580;50.850;4.504;2022-09-29T12:04:13;1.70;;;1.60;;
10191;SDS011;17580;50.850;4.504;2022-09-29T12:06:52;1.70;;;1.60;;
10191;SDS011;17580;50.850;4.504;2022-09-29T12:12:29;2.70;;;1.50;;
10191;SDS011;17580;50.850;4.504;2022-09-29T12:15:10;1.73;;;1.63;;
10191;SDS011;17580;50.850;4.504;2022-09-29T12:17:49;1.93;;;1.80;;
10191;SDS011;17580;50.850;4.504;2022-09-29T12:20:20;2.57;;;2.00;;
10191;SDS011;17580;50.850;4.504;2022-09-29T12:22:50;2.10;;;2.00;;
10191;SDS011;17580;50.850;4.504;2022-09-29T12:25:19;2.17;;;1.80;;
10191;SDS011;17580;50.850;4.504;2022-09-29T12:27:51;2.17;;;2.00;;
10191;SDS011;17580;50.850;4.504;2022-09-29T12:30:22;2.53;;;1.80;;
10191;SDS011;17580;50.850;4.504;2022-09-29T12:32:55;1.80;;;1.70;;
10191;SDS011;17580;50.850;4.504;2022-09-29T12:35:30;1.87;;;1.50;;
10191;SDS011;17580;50.850;4.504;2022-09-29T12:38:06;1.60;;;1.50;;
10191;SDS011;17580;50.850;4.504;2022-09-29T12:40:41;2.27;;;2.00;;
10191;SDS011;17580;50.850;4.504;2022-09-29T12:43:18;1.67;;;1.50;;
10191;SDS011;17580;50.850;4.504;2022-09-29T12:45:51;2.07;;;1.77;;
10191;SDS011;17580;50.850;4.504;2022-09-29T12:48:34;3.33;;;2.00;;
10191;SDS011;17580;50.850;4.504;2022-09-29T12:51:11;1.60;;;1.50;;
10191;SDS011;17580;50.850;4.504;2022-09-29T12:53:52;2.03;;;1.23;;
10191;SDS011;17580;50.850;4.504;2022-09-29T12:56:29;1.80;;;1.33;;
10191;SDS011;17580;50.850;4.504;2022-09-29T12:59:03;1.23;;;1.23;;
10191;SDS011;17580;50.850;4.504;2022-09-29T13:01:35;1.53;;;1.40;;
10191;SDS011;17580;50.850;4.504;2022-09-29T13:10:21;5.00;;;1.90;;
10191;SDS011;17580;50.850;4.504;2022-09-29T13:13:18;5.97;;;1.60;;
10191;SDS011;17580;50.850;4.504;2022-09-29T13:16:02;1.30;;;1.30;;
10191;SDS011;17580;50.850;4.504;2022-09-29T13:18:45;1.97;;;1.50;;
10191;SDS011;17580;50.850;4.504;2022-09-29T13:21:37;1.90;;;1.20;;
10191;SDS011;17580;50.850;4.504;2022-09-29T13:24:17;1.40;;;1.30;;
10191;SDS011;17580;50.850;4.504;2022-09-29T13:27:04;1.77;;;1.67;;
10191;SDS011;17580;50.850;4.504;2022-09-29T13:29:51;2.07;;;1.50;;
10191;SDS011;17580;50.850;4.504;2022-09-29T13:32:25;2.40;;;1.60;;
10191;SDS011;17580;50.850;4.504;2022-09-29T13:34:53;5.17;;;2.23;;
10191;SDS011;17580;50.850;4.504;2022-09-29T13:37:23;2.57;;;1.90;;
10191;SDS011;17580;50.850;4.504;2022-09-29T13:39:53;1.93;;;1.77;;
10191;SDS011;17580;50.850;4.504;2022-09-29T13:42:27;1.80;;;1.70;;
10191;SDS011;17580;50.850;4.504;2022-09-29T13:45:15;1.77;;;1.40;;
10191;SDS011;17580;50.850;4.504;2022-09-29T13:48:00;1.20;;;1.20;;
10191;SDS011;17580;50.850;4.504;2022-09-29T13:50:39;1.60;;;1.23;;
10191;SDS011;17580;50.850;4.504;2022-09-29T13:53:25;1.20;;;1.20;;
10191;SDS011;17580;50.850;4.504;2022-09-29T13:55:53;1.30;;;1.30;;
10191;SDS011;17580;50.850;4.504;2022-09-29T13:58:22;1.47;;;1.33;;
10191;SDS011;17580;50.850;4.504;2022-09-29T14:00:50;1.00;;;1.00;;
10191;SDS011;17580;50.850;4.504;2022-09-29T14:03:24;1.30;;;1.20;;
10191;SDS011;17580;50.850;4.504;2022-09-29T14:05:55;2.63;;;1.40;;
10191;SDS011;17580;50.850;4.504;2022-09-29T14:08:29;2.37;;;1.50;;
10191;SDS011;17580;50.850;4.504;2022-09-29T14:11:03;2.83;;;1.20;;
10191;SDS011;17580;50.850;4.504;2022-09-29T14:13:39;1.77;;;1.43;;
10191;SDS011;17580;50.850;4.504;2022-09-29T14:16:16;1.67;;;1.10;;
10191;SDS011;17580;50.850;4.504;2022-09-29T14:19:02;2.00;;;1.20;;
10191;SDS011;17580;50.850;4.504;2022-09-29T14:21:49;1.00;;;1.00;;
10191;SDS011;17580;50.850;4.504;2022-09-29T14:27:22;1.03;;;1.00;;
10191;SDS011;17580;50.850;4.504;2022-09-29T14:30:15;0.97;;;0.93;;
10191;SDS011;17580;50.850;4.504;2022-09-29T14:32:49;1.00;;;1.00;;
10191;SDS011;17580;50.850;4.504;2022-09-29T14:35:22;1.43;;;1.10;;
10191;SDS011;17580;50.850;4.504;2022-09-29T14:37:56;1.40;;;1.30;;
10191;SDS011;17580;50.850;4.504;2022-09-29T14:40:27;1.63;;;1.50;;
10191;SDS011;17580;50.850;4.504;2022-09-29T14:43:04;1.10;;;1.10;;
10191;SDS011;17580;50.850;4.504;2022-09-29T14:45:38;1.13;;;1.03;;
10191;SDS011;17580;50.850;4.504;2022-09-29T14:48:34;1.57;;;1.20;;
10191;SDS011;17580;50.850;4.504;2022-09-29T14:51:29;2.57;;;1.20;;
10191;SDS011;17580;50.850;4.504;2022-09-29T14:54:20;1.40;;;1.30;;
10191;SDS011;17580;50.850;4.504;2022-09-29T14:56:55;2.43;;;1.20;;
10191;SDS011;17580;50.850;4.504;2022-09-29T14:59:34;1.40;;;1.40;;
10191;SDS011;17580;50.850;4.504;2022-09-29T15:02:19;1.27;;;1.20;;
10191;SDS011;17580;50.850;4.504;2022-09-29T15:04:49;1.37;;;1.30;;
10191;SDS011;17580;50.850;4.504;2022-09-29T15:07:18;1.10;;;1.10;;
10191;SDS011;17580;50.850;4.504;2022-09-29T15:09:47;1.23;;;1.00;;
10191;SDS011;17580;50.850;4.504;2022-09-29T15:12:19;1.30;;;1.20;;
10191;SDS011;17580;50.850;4.504;2022-09-29T15:14:50;3.30;;;1.50;;
10191;SDS011;17580;50.850;4.504;2022-09-29T15:17:26;2.37;;;1.17;;
10191;SDS011;17580;50.850;4.504;2022-09-29T15:20:02;1.00;;;1.00;;
10191;SDS011;17580;50.850;4.504;2022-09-29T15:25:38;0.93;;;0.90;;
10191;SDS011;17580;50.850;4.504;2022-09-29T15:28:09;1.70;;;1.30;;
10191;SDS011;17580;50.850;4.504;2022-09-29T15:30:40;4.53;;;1.23;;
10191;SDS011;17580;50.850;4.504;2022-09-29T15:33:13;0.93;;;0.93;;
10191;SDS011;17580;50.850;4.504;2022-09-29T15:35:45;1.20;;;1.20;;
10191;SDS011;17580;50.850;4.504;2022-09-29T15:38:18;2.97;;;0.90;;
10191;SDS011;17580;50.850;4.504;2022-09-29T15:40:58;1.10;;;1.10;;
10191;SDS011;17580;50.850;4.504;2022-09-29T15:43:28;0.97;;;0.97;;